Time;durP1;ratioP1;P1;durP2;ratioP2;P2;SDS_P1;SDS_P2;PMS_P1;PMS_P2;Temp;Humidity;BMP_temperature;BMP_pressure;BME280_temperature;BME280_humidity;BME280_pressure;Samples;Min_cycle;Max_cycle;Signal;HPM_P1;HPM_P2
2021/10/15 00:01:42;;;;;;;2.60;2.40;;;4.60;92.40;;;;;;5039267;28;20403;-69
2021/10/15 00:04:08;;;;;;;2.53;2.15;;;4.60;92.50;;;;;;5037384;28;20108;-68
2021/10/15 00:06:33;;;;;;;3.95;2.58;;;4.60;92.30;;;;;;5029520;28;20128;-68
2021/10/15 00:08:59;;;;;;;2.70;2.10;;;4.50;92.20;;;;;;5025599;28;20096;-68
2021/10/15 00:11:24;;;;;;;2.80;2.20;;;4.40;92.20;;;;;;5029812;28;20119;-68
2021/10/15 00:13:50;;;;;;;2.17;1.95;;;4.40;92.80;;;;;;5028649;28;20554;-68
2021/10/15 00:16:16;;;;;;;1.77;1.65;;;4.30;91.40;;;;;;5031094;28;20030;-68
2021/10/15 00:18:42;;;;;;;2.05;1.80;;;4.20;91.00;;;;;;5023154;28;20151;-68
2021/10/15 00:21:08;;;;;;;1.77;1.67;;;4.10;91.30;;;;;;5020327;28;20320;-68
2021/10/15 00:23:33;;;;;;;2.22;1.90;;;4.20;91.70;;;;;;5023414;28;20035;-68
2021/10/15 00:26:00;;;;;;;3.90;2.55;;;4.10;92.10;;;;;;5028875;28;20048;-68
2021/10/15 00:28:26;;;;;;;2.53;2.08;;;4.10;92.30;;;;;;5027016;28;20083;-68
2021/10/15 00:30:51;;;;;;;3.47;2.45;;;4.20;92.40;;;;;;5023071;28;20037;-68
2021/10/15 00:33:17;;;;;;;2.25;1.77;;;4.20;92.40;;;;;;5029929;28;20116;-68
2021/10/15 00:35:42;;;;;;;2.17;1.98;;;4.20;92.30;;;;;;5027045;28;20033;-68
2021/10/15 00:38:08;;;;;;;2.55;2.20;;;4.20;92.20;;;;;;5024182;28;20063;-68
2021/10/15 00:40:34;;;;;;;3.58;2.30;;;4.20;92.20;;;;;;5029298;28;20033;-68
2021/10/15 00:42:59;;;;;;;1.98;1.85;;;4.10;92.50;;;;;;5030658;28;20105;-68
2021/10/15 00:45:25;;;;;;;2.88;2.00;;;4.10;92.60;;;;;;5029238;28;20108;-68
2021/10/15 00:47:50;;;;;;;3.72;2.63;;;4.00;92.40;;;;;;5037091;28;20406;-68
2021/10/15 00:50:16;;;;;;;4.40;1.92;;;3.90;92.10;;;;;;5026895;28;20402;-68
2021/10/15 00:52:42;;;;;;;3.08;2.10;;;3.80;92.70;;;;;;5031618;28;20040;-68
2021/10/15 00:55:08;;;;;;;3.42;2.10;;;3.80;93.00;;;;;;5024106;28;20029;-68
2021/10/15 00:57:33;;;;;;;3.08;1.92;;;3.80;93.40;;;;;;5028107;28;20558;-69
2021/10/15 00:59:59;;;;;;;1.92;1.80;;;3.70;93.60;;;;;;5025323;28;20541;-68
2021/10/15 01:02:25;;;;;;;3.97;2.13;;;3.70;93.70;;;;;;5028954;28;20036;-68
2021/10/15 01:04:51;;;;;;;3.00;2.10;;;3.70;93.20;;;;;;5027755;28;20060;-67
2021/10/15 01:07:16;;;;;;;2.28;2.08;;;3.70;93.60;;;;;;5028644;28;20033;-68
2021/10/15 01:09:42;;;;;;;2.85;1.77;;;3.70;92.70;;;;;;5024697;28;20030;-68
2021/10/15 01:12:08;;;;;;;3.00;1.83;;;3.60;92.30;;;;;;5024251;28;20022;-68
2021/10/15 01:14:33;;;;;;;1.90;1.75;;;3.60;92.50;;;;;;5025890;28;20040;-68
2021/10/15 01:17:06;;;;;;;2.03;1.83;;;3.60;92.70;;;;;;5024391;28;20553;-67
2021/10/15 01:19:32;;;;;;;2.53;2.15;;;3.60;93.00;;;;;;5030045;28;20044;-67
2021/10/15 01:22:01;;;;;;;1.60;1.48;;;3.60;93.10;;;;;;5025801;28;20042;-68
2021/10/15 01:24:27;;;;;;;2.63;1.52;;;3.60;92.90;;;;;;5023292;28;20022;-68
2021/10/15 01:26:53;;;;;;;2.15;1.70;;;3.60;92.80;;;;;;5028420;28;20040;-68
2021/10/15 01:29:19;;;;;;;1.35;1.25;;;3.60;92.30;;;;;;5028835;28;20115;-67
2021/10/15 01:31:44;;;;;;;1.63;1.55;;;3.50;92.00;;;;;;5025950;28;20467;-68
2021/10/15 01:34:10;;;;;;;1.52;1.42;;;3.50;92.20;;;;;;5025534;28;20049;-67
2021/10/15 01:36:36;;;;;;;1.90;1.73;;;3.40;92.10;;;;;;5027856;28;20544;-67
2021/10/15 01:39:01;;;;;;;2.47;1.90;;;3.40;92.30;;;;;;5023542;28;20029;-68
2021/10/15 01:41:28;;;;;;;1.83;1.73;;;3.30;92.50;;;;;;5026586;28;20435;-68
2021/10/15 01:43:53;;;;;;;1.80;1.70;;;3.30;92.60;;;;;;5029939;28;20134;-67
2021/10/15 01:46:19;;;;;;;3.03;2.20;;;3.30;92.70;;;;;;5029094;28;20105;-69
2021/10/15 01:48:45;;;;;;;3.00;2.03;;;3.30;92.70;;;;;;5026856;28;20057;-67
2021/10/15 01:51:11;;;;;;;2.78;2.13;;;3.40;92.90;;;;;;5026031;28;20030;-67
2021/10/15 01:53:36;;;;;;;2.60;2.13;;;3.30;92.90;;;;;;5027424;28;20029;-67
2021/10/15 01:56:02;;;;;;;2.33;1.75;;;3.40;92.90;;;;;;5029487;28;20033;-68
2021/10/15 01:58:28;;;;;;;4.53;2.08;;;3.30;93.10;;;;;;5033506;28;20071;-68
2021/10/15 02:00:54;;;;;;;2.42;2.22;;;3.30;93.20;;;;;;5026248;28;20041;-67
2021/10/15 02:03:19;;;;;;;3.00;2.58;;;3.40;93.10;;;;;;5025543;28;20053;-68
2021/10/15 02:05:46;;;;;;;4.88;2.92;;;3.40;93.20;;;;;;5018602;28;20437;-68
2021/10/15 02:08:11;;;;;;;3.38;2.30;;;3.20;93.40;;;;;;5025102;28;20025;-67
2021/10/15 02:10:37;;;;;;;3.85;2.40;;;3.10;94.00;;;;;;5025520;28;20083;-68
2021/10/15 02:13:03;;;;;;;2.80;2.50;;;3.20;93.80;;;;;;5021948;28;20091;-67
2021/10/15 02:15:28;;;;;;;2.67;2.20;;;3.20;93.40;;;;;;5023215;28;20037;-69
2021/10/15 02:17:54;;;;;;;2.03;1.83;;;3.20;93.10;;;;;;5029666;28;20037;-68
2021/10/15 02:20:20;;;;;;;2.15;1.98;;;3.20;92.50;;;;;;5026293;28;20033;-68
2021/10/15 02:22:49;;;;;;;2.13;1.70;;;3.10;92.90;;;;;;5024287;28;20095;-67
2021/10/15 02:25:17;;;;;;;2.28;1.90;;;3.00;93.50;;;;;;5032177;28;20519;-68
2021/10/15 02:27:43;;;;;;;2.15;1.95;;;2.90;93.70;;;;;;5034476;28;20030;-67
2021/10/15 02:30:10;;;;;;;2.25;2.05;;;3.00;93.90;;;;;;5028625;28;20032;-67
2021/10/15 02:32:36;;;;;;;4.38;1.90;;;3.00;93.50;;;;;;5025282;28;20099;-67
2021/10/15 02:35:07;;;;;;;2.65;1.95;;;3.10;93.40;;;;;;5030884;28;20054;-68
2021/10/15 02:37:32;;;;;;;2.75;2.50;;;3.00;93.70;;;;;;5024016;28;20437;-67
2021/10/15 02:39:58;;;;;;;3.08;2.45;;;3.10;93.60;;;;;;5030868;28;20087;-67
2021/10/15 02:42:24;;;;;;;2.22;2.03;;;3.00;93.80;;;;;;5028454;28;20025;-67
2021/10/15 02:44:49;;;;;;;3.67;2.03;;;3.00;93.40;;;;;;5025612;28;20041;-68
2021/10/15 02:47:15;;;;;;;2.40;2.10;;;2.90;93.40;;;;;;5042922;28;20026;-68
2021/10/15 02:49:41;;;;;;;3.17;1.90;;;2.90;93.50;;;;;;5032061;28;20032;-69
2021/10/15 02:52:06;;;;;;;10.85;2.03;;;2.90;92.60;;;;;;5041112;28;20025;-67
2021/10/15 02:54:32;;;;;;;2.20;2.00;;;2.70;92.50;;;;;;5031407;28;20033;-68
2021/10/15 02:56:58;;;;;;;1.90;1.80;;;2.60;92.70;;;;;;5030974;28;20335;-67
2021/10/15 02:59:23;;;;;;;2.15;1.95;;;2.60;92.90;;;;;;5026435;28;20037;-67
2021/10/15 03:01:49;;;;;;;2.10;1.90;;;2.70;93.30;;;;;;5028332;28;20521;-68
2021/10/15 03:04:14;;;;;;;3.17;2.47;;;2.70;93.50;;;;;;5029739;28;20025;-68
2021/10/15 03:06:40;;;;;;;3.30;2.55;;;2.60;93.20;;;;;;5029916;28;20478;-67
2021/10/15 03:09:06;;;;;;;2.50;2.13;;;2.70;94.10;;;;;;5028914;28;20125;-67
2021/10/15 03:11:32;;;;;;;2.40;2.10;;;2.70;94.50;;;;;;5029078;28;20727;-67
2021/10/15 03:13:59;;;;;;;134.77;47.20;;;2.70;94.30;;;;;;5031976;28;20084;-67
2021/10/15 03:16:25;;;;;;;10.43;5.75;;;2.70;94.10;;;;;;5027094;28;20037;-67
2021/10/15 03:18:50;;;;;;;5.78;3.78;;;2.70;94.20;;;;;;5027088;28;20528;-68
2021/10/15 03:21:16;;;;;;;3.15;2.88;;;2.70;94.10;;;;;;5023870;28;20033;-68
2021/10/15 03:23:41;;;;;;;2.60;2.40;;;2.70;94.30;;;;;;5027131;28;20061;-68
2021/10/15 03:26:07;;;;;;;2.35;2.08;;;2.70;95.00;;;;;;5030738;28;20025;-68
2021/10/15 03:28:33;;;;;;;3.75;2.80;;;2.70;94.80;;;;;;5029563;28;20022;-68
2021/10/15 03:30:58;;;;;;;3.83;2.05;;;2.70;94.80;;;;;;5025622;28;20037;-68
2021/10/15 03:33:24;;;;;;;4.13;2.97;;;2.70;94.80;;;;;;5023683;28;20061;-69
2021/10/15 03:35:49;;;;;;;4.90;3.05;;;2.70;94.70;;;;;;5031409;28;20386;-67
2021/10/15 03:38:15;;;;;;;4.05;2.70;;;2.70;95.00;;;;;;5038859;28;20112;-67
2021/10/15 03:40:41;;;;;;;4.03;2.17;;;2.70;95.10;;;;;;5036628;28;20574;-68
2021/10/15 03:43:06;;;;;;;3.58;2.35;;;2.70;94.30;;;;;;5033242;28;20064;-67
2021/10/15 03:45:32;;;;;;;2.60;2.33;;;2.60;93.80;;;;;;5029033;28;20072;-68
2021/10/15 03:47:58;;;;;;;3.65;2.40;;;2.50;93.40;;;;;;5026872;28;20529;-70
2021/10/15 03:50:23;;;;;;;6.50;2.78;;;2.40;92.90;;;;;;5026462;28;20478;-67
2021/10/15 03:52:49;;;;;;;2.47;2.20;;;2.40;93.10;;;;;;5026659;28;20033;-67
2021/10/15 03:55:15;;;;;;;3.78;2.95;;;2.40;93.20;;;;;;5026914;28;20112;-68
2021/10/15 03:57:41;;;;;;;3.00;2.40;;;2.40;93.50;;;;;;5034017;28;20060;-67
2021/10/15 04:00:10;;;;;;;3.63;2.90;;;2.30;93.70;;;;;;5029158;28;20431;-67
2021/10/15 04:02:41;;;;;;;3.00;2.55;;;2.30;94.60;;;;;;5024689;28;20064;-67
2021/10/15 04:05:08;;;;;;;3.17;2.58;;;2.30;95.00;;;;;;5027242;28;20081;-68
2021/10/15 04:07:34;;;;;;;3.00;2.55;;;2.30;95.30;;;;;;5029634;28;20029;-68
2021/10/15 04:10:00;;;;;;;4.05;2.80;;;2.40;95.30;;;;;;5024876;28;20029;-67
2021/10/15 04:12:26;;;;;;;2.92;2.60;;;2.40;95.20;;;;;;5029806;28;20021;-67
2021/10/15 04:14:51;;;;;;;3.60;2.95;;;2.40;95.00;;;;;;5030066;28;20422;-67
2021/10/15 04:17:17;;;;;;;2.38;2.17;;;2.50;94.80;;;;;;5028215;28;20034;-67
2021/10/15 04:19:42;;;;;;;4.05;2.63;;;2.50;94.50;;;;;;5022991;28;20116;-68
2021/10/15 04:22:10;;;;;;;6.32;3.33;;;2.50;94.60;;;;;;5041380;28;20565;-68
2021/10/15 04:24:39;;;;;;;2.33;2.15;;;2.50;94.60;;;;;;5025583;28;20507;-68
2021/10/15 04:27:06;;;;;;;4.97;3.28;;;2.50;94.60;;;;;;5033564;28;20112;-67
2021/10/15 04:29:32;;;;;;;3.80;2.38;;;2.40;94.30;;;;;;5025987;28;20029;-68
2021/10/15 04:31:58;;;;;;;2.90;2.60;;;2.30;93.80;;;;;;5026994;28;20490;-67
2021/10/15 04:34:24;;;;;;;2.58;2.38;;;2.20;93.30;;;;;;5024177;28;20425;-67
2021/10/15 04:36:50;;;;;;;2.90;2.58;;;2.20;94.00;;;;;;5025761;28;20033;-67
2021/10/15 04:39:16;;;;;;;3.25;2.40;;;2.20;94.30;;;;;;5027686;28;20509;-67
2021/10/15 04:41:41;;;;;;;3.10;2.83;;;2.20;94.60;;;;;;5030405;28;20061;-67
2021/10/15 04:44:07;;;;;;;2.88;2.28;;;2.20;95.00;;;;;;5025846;28;20060;-68
2021/10/15 04:46:33;;;;;;;4.22;2.85;;;2.20;95.30;;;;;;5028369;28;20040;-68
2021/10/15 04:48:58;;;;;;;4.18;2.85;;;2.20;95.40;;;;;;5027184;28;20108;-68
2021/10/15 04:51:24;;;;;;;5.80;2.97;;;2.20;95.20;;;;;;5031111;28;20032;-67
2021/10/15 04:53:50;;;;;;;2.92;2.67;;;2.20;95.00;;;;;;5030258;28;20056;-67
2021/10/15 04:56:15;;;;;;;5.25;3.25;;;2.30;94.70;;;;;;5026312;28;20459;-68
2021/10/15 04:58:41;;;;;;;7.50;3.22;;;2.30;94.50;;;;;;5027785;28;20030;-68
2021/10/15 05:01:07;;;;;;;3.13;2.83;;;2.30;94.30;;;;;;5026520;28;20092;-67
2021/10/15 05:03:32;;;;;;;2.95;2.58;;;2.20;94.50;;;;;;5029181;28;20552;-68
2021/10/15 05:05:58;;;;;;;3.08;2.72;;;2.20;95.00;;;;;;5029991;28;20033;-68
2021/10/15 05:08:30;;;;;;;3.88;2.45;;;2.20;95.20;;;;;;5026197;28;20036;-68
2021/10/15 05:10:55;;;;;;;11.65;3.00;;;2.20;95.30;;;;;;5024888;28;20111;-67
2021/10/15 05:13:21;;;;;;;2.97;2.70;;;2.20;95.20;;;;;;5027319;28;20570;-69
2021/10/15 05:15:47;;;;;;;3.63;2.42;;;2.20;94.50;;;;;;5026761;28;20482;-67
2021/10/15 05:18:17;;;;;;;4.78;3.40;;;2.10;93.50;;;;;;5025233;28;20414;-67
2021/10/15 05:20:44;;;;;;;4.55;2.67;;;2.10;93.40;;;;;;5022213;28;20044;-67
2021/10/15 05:23:10;;;;;;;3.78;3.08;;;2.10;94.00;;;;;;5029645;28;20021;-68
2021/10/15 05:25:37;;;;;;;6.82;3.28;;;2.00;94.70;;;;;;5036653;28;20032;-67
2021/10/15 05:28:04;;;;;;;5.00;3.85;;;2.00;94.70;;;;;;5025461;28;20041;-67
2021/10/15 05:30:30;;;;;;;4.88;3.17;;;1.90;95.40;;;;;;5024070;28;20768;-68
2021/10/15 05:32:56;;;;;;;4.28;3.53;;;2.00;95.30;;;;;;5025551;28;20021;-67
2021/10/15 05:35:22;;;;;;;4.55;3.50;;;2.10;95.00;;;;;;5029260;28;20091;-67
2021/10/15 05:37:48;;;;;;;4.70;2.88;;;2.00;94.30;;;;;;5029230;28;20037;-68
2021/10/15 05:40:14;;;;;;;5.40;3.10;;;1.90;93.70;;;;;;5028882;28;20430;-68
2021/10/15 05:42:48;;;;;;;3.13;2.60;;;1.90;93.70;;;;;;5021479;28;20092;-67
2021/10/15 05:45:14;;;;;;;3.22;2.85;;;1.80;93.80;;;;;;5020058;28;20018;-68
2021/10/15 05:47:40;;;;;;;3.72;3.00;;;1.80;93.70;;;;;;5026898;28;20083;-68
2021/10/15 05:50:08;;;;;;;6.80;3.45;;;1.70;93.80;;;;;;5030898;28;20037;-67
2021/10/15 05:52:54;;;;;;;4.50;2.92;;;1.70;93.70;;;;;;5026991;28;20401;-68
2021/10/15 05:55:33;;;;;;;4.40;2.60;;;1.60;93.80;;;;;;5022859;28;20061;-69
2021/10/15 06:00:43;;;;;;;3.92;2.90;;;1.60;93.90;;;;;;5023737;28;20079;-68
2021/10/15 06:03:09;;;;;;;3.95;3.08;;;1.70;93.80;;;;;;5023984;28;20033;-68
2021/10/15 06:16:04;;;;;;;4.95;3.13;;;1.80;93.90;;;;;;5027277;28;20064;-68
2021/10/15 06:18:37;;;;;;;7.10;3.53;;;1.80;94.30;;;;;;5022706;28;20574;-68
2021/10/15 06:21:03;;;;;;;5.97;3.60;;;1.80;94.50;;;;;;5031285;28;20080;-68
2021/10/15 06:23:30;;;;;;;5.18;3.00;;;1.90;95.30;;;;;;5032028;28;20041;-68
2021/10/15 06:25:56;;;;;;;5.90;3.28;;;1.90;94.90;;;;;;5026170;28;20451;-67
2021/10/15 06:28:22;;;;;;;5.38;3.15;;;1.90;95.40;;;;;;5033309;28;20040;-67
2021/10/15 06:30:49;;;;;;;6.38;3.50;;;1.90;95.70;;;;;;5028120;28;20480;-67
2021/10/15 06:33:15;;;;;;;7.60;3.95;;;2.00;95.20;;;;;;5030991;28;20045;-68
2021/10/15 06:35:40;;;;;;;6.20;3.72;;;2.00;95.60;;;;;;5029108;28;20593;-68
2021/10/15 06:38:07;;;;;;;5.95;3.53;;;2.10;95.80;;;;;;5028078;28;20099;-67
2021/10/15 06:40:36;;;;;;;5.45;3.83;;;2.10;95.90;;;;;;5030243;28;20037;-68
2021/10/15 06:43:02;;;;;;;8.13;4.05;;;2.20;95.80;;;;;;5029564;28;20210;-68
2021/10/15 06:45:28;;;;;;;4.72;3.47;;;2.20;95.80;;;;;;5030883;28;20021;-68
2021/10/15 06:47:53;;;;;;;3.75;2.90;;;2.20;95.80;;;;;;5030815;28;20075;-68
2021/10/15 06:50:19;;;;;;;5.25;3.63;;;2.20;95.60;;;;;;5026994;28;20033;-68
2021/10/15 06:52:48;;;;;;;4.70;2.97;;;2.30;95.60;;;;;;5020864;28;20151;-68
2021/10/15 06:55:18;;;;;;;6.28;2.92;;;2.30;95.60;;;;;;5024345;28;20025;-68
2021/10/15 06:57:44;;;;;;;4.15;3.75;;;2.30;96.00;;;;;;5021941;28;20078;-68
2021/10/15 07:00:12;;;;;;;5.28;3.28;;;2.40;96.00;;;;;;5025630;28;20108;-68
2021/10/15 07:02:38;;;;;;;4.35;3.15;;;2.40;96.20;;;;;;5022330;28;20056;-68
2021/10/15 07:05:04;;;;;;;5.07;3.88;;;2.40;96.50;;;;;;5029961;28;20037;-68
2021/10/15 07:07:30;;;;;;;4.30;2.90;;;2.50;97.00;;;;;;5021841;28;20429;-67
2021/10/15 07:09:56;;;;;;;3.45;2.42;;;2.60;97.80;;;;;;5028644;28;20494;-68
2021/10/15 07:12:22;;;;;;;5.45;2.95;;;2.70;98.20;;;;;;5032475;28;20024;-67
2021/10/15 07:14:47;;;;;;;5.38;3.28;;;2.80;98.70;;;;;;5030589;28;20029;-67
2021/10/15 07:17:13;;;;;;;4.25;3.08;;;2.90;98.70;;;;;;5032419;28;20024;-68
2021/10/15 07:19:38;;;;;;;4.60;3.45;;;3.00;99.10;;;;;;5030124;28;20112;-68
2021/10/15 07:22:04;;;;;;;6.15;2.92;;;3.00;99.30;;;;;;5028762;28;20049;-67
2021/10/15 07:24:29;;;;;;;4.53;3.00;;;3.20;99.20;;;;;;5029616;28;20097;-68
2021/10/15 07:26:55;;;;;;;5.25;3.60;;;3.30;99.30;;;;;;5032266;28;20430;-68
2021/10/15 07:29:21;;;;;;;3.78;3.17;;;3.40;99.40;;;;;;5030840;28;20399;-68
2021/10/15 07:31:46;;;;;;;5.60;3.75;;;3.50;99.30;;;;;;5031148;28;20061;-67
2021/10/15 07:34:12;;;;;;;4.95;3.30;;;3.60;99.20;;;;;;5030874;28;20056;-67
2021/10/15 07:36:39;;;;;;;6.13;3.72;;;3.60;98.90;;;;;;5031935;28;20026;-67
2021/10/15 07:39:06;;;;;;;5.32;3.50;;;3.70;99.30;;;;;;5027939;28;20116;-68
2021/10/15 07:41:32;;;;;;;4.75;3.65;;;3.80;99.30;;;;;;5030343;28;20029;-68
2021/10/15 07:43:58;;;;;;;5.38;3.50;;;3.90;99.50;;;;;;5026778;28;20422;-68
2021/10/15 07:46:24;;;;;;;6.05;3.63;;;4.00;99.90;;;;;;5027107;28;20026;-68
2021/10/15 07:48:49;;;;;;;5.63;3.58;;;4.20;99.80;;;;;;5027052;28;20116;-68
2021/10/15 07:51:15;;;;;;;6.20;3.95;;;4.20;99.50;;;;;;5031499;28;20022;-68
2021/10/15 07:53:41;;;;;;;7.93;4.15;;;4.30;99.30;;;;;;5029111;28;20030;-68
2021/10/15 07:56:06;;;;;;;5.85;4.10;;;4.40;99.70;;;;;;5029249;28;20044;-68
2021/10/15 07:58:32;;;;;;;6.38;4.28;;;4.60;99.50;;;;;;5030392;28;20025;-69
2021/10/15 08:00:57;;;;;;;10.02;4.78;;;4.80;99.90;;;;;;5031637;28;20041;-69
2021/10/15 08:03:23;;;;;;;7.72;4.63;;;4.90;99.90;;;;;;5032261;28;20542;-69
2021/10/15 08:05:48;;;;;;;7.68;4.65;;;5.10;99.60;;;;;;5028448;28;20037;-69
2021/10/15 08:08:14;;;;;;;8.07;5.20;;;5.20;99.40;;;;;;5030799;28;20013;-69
2021/10/15 08:10:40;;;;;;;8.18;5.20;;;5.20;99.10;;;;;;5028132;28;20029;-69
2021/10/15 08:13:05;;;;;;;8.73;4.88;;;5.30;99.10;;;;;;5029080;28;20771;-68
2021/10/15 08:15:31;;;;;;;9.55;4.80;;;5.30;99.30;;;;;;5031513;28;20032;-68
2021/10/15 08:17:58;;;;;;;11.30;5.40;;;5.50;99.80;;;;;;5029284;28;20461;-69
2021/10/15 08:20:24;;;;;;;9.95;6.38;;;5.60;99.80;;;;;;5026204;28;20111;-69
2021/10/15 08:22:51;;;;;;;11.25;5.72;;;5.80;99.10;;;;;;5020137;28;20434;-69
2021/10/15 08:25:17;;;;;;;10.05;4.72;;;5.80;98.70;;;;;;5027675;28;20032;-69
2021/10/15 08:27:43;;;;;;;8.45;5.60;;;5.90;98.10;;;;;;5030008;28;20483;-70
2021/10/15 08:30:09;;;;;;;12.27;6.50;;;6.10;98.70;;;;;;5024858;28;20120;-69
2021/10/15 08:32:35;;;;;;;11.43;5.95;;;6.20;98.20;;;;;;5026593;28;20033;-69
2021/10/15 08:35:01;;;;;;;11.52;6.45;;;6.40;97.30;;;;;;5027195;28;20128;-70
2021/10/15 08:37:27;;;;;;;9.18;5.97;;;6.50;97.50;;;;;;5028604;28;20082;-70
2021/10/15 08:39:52;;;;;;;10.23;5.68;;;6.60;96.70;;;;;;5027234;28;20057;-69
2021/10/15 08:42:18;;;;;;;9.68;6.38;;;6.70;97.20;;;;;;5030913;28;20053;-70
2021/10/15 08:44:46;;;;;;;10.95;6.03;;;6.90;98.00;;;;;;5028482;28;20025;-67
2021/10/15 08:47:14;;;;;;;13.70;6.50;;;7.00;95.80;;;;;;5026733;28;20057;-67
2021/10/15 08:49:39;;;;;;;14.20;6.38;;;7.10;95.90;;;;;;5031533;28;20041;-67
2021/10/15 08:52:05;;;;;;;13.02;6.78;;;7.20;94.90;;;;;;5029041;28;20029;-67
2021/10/15 08:54:32;;;;;;;14.43;7.38;;;7.40;94.50;;;;;;5028852;28;20398;-67
2021/10/15 08:56:59;;;;;;;12.23;6.47;;;7.40;94.40;;;;;;5029330;28;20371;-67
2021/10/15 08:59:43;;;;;;;11.35;6.53;;;7.50;94.50;;;;;;5027363;28;20770;-67
2021/10/15 09:02:14;;;;;;;12.38;6.15;;;7.60;93.80;;;;;;5025827;28;20041;-67
2021/10/15 09:04:56;;;;;;;13.23;7.03;;;7.70;93.50;;;;;;5029066;28;20033;-67
2021/10/15 09:07:23;;;;;;;11.48;6.90;;;7.70;92.90;;;;;;5021861;28;20075;-67
2021/10/15 09:10:05;;;;;;;13.48;7.07;;;7.70;94.00;;;;;;5023877;28;20029;-67
2021/10/15 09:12:42;;;;;;;11.85;6.93;;;7.90;93.60;;;;;;5026082;28;20034;-67
2021/10/15 09:15:08;;;;;;;13.20;7.72;;;8.00;92.80;;;;;;5029285;28;20076;-68
2021/10/15 09:17:42;;;;;;;11.57;6.47;;;8.00;92.80;;;;;;5027209;28;20040;-67
2021/10/15 09:20:08;;;;;;;13.32;7.72;;;8.00;93.20;;;;;;5027379;28;20045;-67
2021/10/15 09:22:35;;;;;;;14.52;7.45;;;8.10;93.00;;;;;;5029984;28;20080;-67
2021/10/15 09:25:12;;;;;;;11.70;7.38;;;8.20;93.30;;;;;;5028556;28;20030;-67
2021/10/15 09:27:43;;;;;;;14.40;8.15;;;8.40;93.90;;;;;;5024963;28;20038;-67
2021/10/15 09:30:14;;;;;;;14.43;7.47;;;8.60;93.20;;;;;;5028800;28;20056;-67
2021/10/15 09:32:51;;;;;;;13.70;7.18;;;8.60;91.80;;;;;;5027728;28;20054;-68
2021/10/15 09:35:24;;;;;;;14.32;7.70;;;8.70;92.50;;;;;;5025955;28;20092;-68
2021/10/15 09:37:54;;;;;;;13.40;6.90;;;8.80;92.40;;;;;;5029124;28;20116;-69
2021/10/15 09:40:25;;;;;;;15.88;7.75;;;8.80;92.00;;;;;;5027696;28;20426;-68
2021/10/15 09:42:56;;;;;;;13.80;7.35;;;8.90;92.30;;;;;;5030208;28;20028;-68
2021/10/15 09:45:25;;;;;;;12.98;7.22;;;9.10;92.50;;;;;;5024405;28;20513;-68
2021/10/15 09:47:51;;;;;;;12.05;7.13;;;9.10;91.20;;;;;;5027500;28;20022;-68
2021/10/15 09:50:19;;;;;;;12.10;7.25;;;9.10;91.20;;;;;;5024846;28;20025;-68
2021/10/15 09:52:49;;;;;;;14.88;7.75;;;9.20;90.30;;;;;;5029436;28;20026;-68
2021/10/15 09:55:21;;;;;;;16.25;7.32;;;9.10;90.20;;;;;;5024755;28;20036;-68
2021/10/15 09:57:50;;;;;;;12.05;6.82;;;9.20;90.30;;;;;;5025445;28;20033;-68
2021/10/15 10:00:24;;;;;;;14.60;7.90;;;9.40;90.80;;;;;;5029189;28;20486;-68
2021/10/15 10:02:50;;;;;;;13.20;7.68;;;9.40;90.40;;;;;;5027180;28;20076;-67
2021/10/15 10:05:18;;;;;;;15.57;7.82;;;9.60;91.20;;;;;;5039139;28;20033;-68
2021/10/15 10:07:47;;;;;;;13.20;7.15;;;9.70;90.30;;;;;;5028666;28;20030;-67
2021/10/15 10:10:21;;;;;;;14.82;8.50;;;9.70;90.60;;;;;;5026003;28;20033;-68
2021/10/15 10:12:47;;;;;;;17.10;8.55;;;9.80;89.20;;;;;;5028319;28;20036;-67
2021/10/15 10:15:16;;;;;;;14.73;8.68;;;9.90;88.90;;;;;;5027290;28;20056;-67
2021/10/15 10:17:50;;;;;;;14.82;7.93;;;9.90;86.80;;;;;;5044809;28;20520;-67
2021/10/15 10:20:23;;;;;;;18.75;8.63;;;9.90;86.00;;;;;;5028417;28;20035;-68
2021/10/15 10:23:29;;;;;;;14.77;8.18;;;9.90;87.30;;;;;;5027530;28;20108;-68
2021/10/15 10:25:59;;;;;;;13.63;8.30;;;10.00;88.50;;;;;;5015742;28;20551;-68
2021/10/15 10:28:27;;;;;;;16.80;8.45;;;10.10;88.90;;;;;;5029668;28;20390;-70
2021/10/15 10:30:59;;;;;;;15.85;7.85;;;10.20;87.80;;;;;;5029029;28;20025;-68
2021/10/15 10:33:25;;;;;;;16.50;8.80;;;10.30;86.10;;;;;;5020912;28;20057;-67
2021/10/15 10:35:52;;;;;;;13.70;7.78;;;10.20;85.30;;;;;;5028977;28;20029;-68
2021/10/15 10:38:20;;;;;;;16.65;8.27;;;10.30;85.20;;;;;;5028713;28;20036;-68
2021/10/15 10:41:01;;;;;;;18.27;8.68;;;10.30;86.30;;;;;;5029178;28;20025;-68
2021/10/15 10:43:29;;;;;;;14.90;8.68;;;10.30;85.30;;;;;;5020160;28;20033;-68
2021/10/15 10:46:17;;;;;;;14.52;7.57;;;10.40;87.30;;;;;;5031934;28;20021;-68
2021/10/15 10:48:49;;;;;;;12.98;7.18;;;10.50;85.60;;;;;;5018492;28;20021;-68
2021/10/15 10:51:26;;;;;;;16.67;8.40;;;10.40;84.80;;;;;;5027429;28;20036;-68
2021/10/15 10:54:03;;;;;;;11.80;6.97;;;10.50;84.30;;;;;;5031054;28;20038;-67
2021/10/15 10:56:51;;;;;;;13.95;7.60;;;10.60;83.80;;;;;;5031315;28;20367;-68
2021/10/15 10:59:24;;;;;;;;;;;10.80;84.30;;;;;;5025355;28;20429;-73
2021/10/15 11:02:03;;;;;;;11.15;7.47;;;10.70;84.50;;;;;;5030027;28;19921;-68
2021/10/15 11:04:42;;;;;;;14.25;7.68;;;10.80;83.80;;;;;;5031289;28;20030;-68
2021/10/15 11:07:19;;;;;;;15.65;7.63;;;10.80;84.80;;;;;;5030934;28;20067;-68
2021/10/15 11:10:01;;;;;;;13.50;7.93;;;10.80;84.00;;;;;;5028958;28;20104;-68
2021/10/15 11:12:26;;;;;;;14.70;8.02;;;10.80;83.40;;;;;;5020269;28;20466;-68
2021/10/15 11:15:08;;;;;;;12.85;7.72;;;10.90;82.30;;;;;;5024163;28;20030;-68
2021/10/15 11:17:34;;;;;;;12.25;7.13;;;10.90;82.90;;;;;;5031212;28;20036;-68
2021/10/15 11:20:20;;;;;;;14.10;7.70;;;11.00;83.00;;;;;;5030215;28;20048;-67
2021/10/15 11:22:53;;;;;;;11.95;6.80;;;11.10;82.60;;;;;;5032416;28;20837;-68
2021/10/15 11:25:19;;;;;;;12.20;6.72;;;11.20;84.10;;;;;;5028531;28;20120;-68
2021/10/15 11:28:04;;;;;;;12.57;7.20;;;11.30;82.70;;;;;;5030801;28;20077;-68
2021/10/15 11:30:33;;;;;;;12.27;7.28;;;11.40;83.50;;;;;;5027609;28;20033;-67
2021/10/15 11:33:00;;;;;;;16.10;7.38;;;11.50;83.80;;;;;;5030493;28;20049;-68
2021/10/15 11:35:36;;;;;;;12.05;7.10;;;11.40;82.20;;;;;;5029251;28;20022;-68
2021/10/15 11:38:05;;;;;;;12.98;6.88;;;11.50;81.70;;;;;;5027546;28;20033;-68
2021/10/15 11:40:40;;;;;;;14.02;8.45;;;11.50;82.30;;;;;;5026658;28;20503;-68
2021/10/15 11:43:28;;;;;;;12.57;7.28;;;11.60;83.00;;;;;;5028929;28;20049;-68
2021/10/15 11:45:56;;;;;;;14.30;7.65;;;11.70;82.60;;;;;;5029996;28;20029;-68
2021/10/15 11:48:42;;;;;;;12.80;6.97;;;11.80;80.30;;;;;;5029451;28;20067;-68
2021/10/15 11:51:23;;;;;;;11.20;7.45;;;11.80;81.10;;;;;;5026250;28;20578;-68
2021/10/15 11:53:59;;;;;;;13.68;7.53;;;11.90;81.40;;;;;;5030710;28;20029;-68
2021/10/15 11:56:27;;;;;;;12.88;7.13;;;11.90;78.50;;;;;;5029863;28;20375;-68
2021/10/15 11:58:57;;;;;;;12.23;7.10;;;11.90;80.60;;;;;;5028906;28;20084;-68
2021/10/15 12:01:28;;;;;;;11.05;7.65;;;12.00;81.00;;;;;;5026216;28;20029;-68
2021/10/15 12:04:00;;;;;;;11.75;6.82;;;12.10;82.20;;;;;;5029971;28;20029;-68
2021/10/15 12:06:38;;;;;;;10.02;6.35;;;12.10;78.80;;;;;;5025907;28;20033;-68
2021/10/15 12:09:04;;;;;;;11.55;6.95;;;12.10;79.60;;;;;;5029652;28;20025;-68
2021/10/15 12:11:33;;;;;;;12.07;6.72;;;12.10;79.70;;;;;;5023142;28;20040;-68
2021/10/15 12:14:02;;;;;;;11.15;7.32;;;12.10;80.80;;;;;;5030701;28;20030;-68
2021/10/15 12:16:31;;;;;;;14.90;7.57;;;12.30;82.00;;;;;;5030616;28;20589;-68
2021/10/15 12:19:01;;;;;;;11.43;6.57;;;12.40;80.80;;;;;;5028918;28;20079;-68
2021/10/15 12:21:34;;;;;;;12.65;7.20;;;12.40;79.50;;;;;;5023555;28;20025;-68
2021/10/15 12:23:59;;;;;;;11.70;6.53;;;12.50;77.80;;;;;;5029011;28;20033;-68
2021/10/15 12:26:25;;;;;;;10.98;6.75;;;12.50;78.90;;;;;;5029536;28;20022;-68
2021/10/15 12:28:51;;;;;;;12.50;6.38;;;12.60;78.10;;;;;;5028843;28;20029;-68
2021/10/15 12:31:26;;;;;;;10.82;6.45;;;12.70;77.50;;;;;;5027150;28;20083;-68
2021/10/15 12:34:09;;;;;;;9.77;5.97;;;12.70;78.40;;;;;;5030750;28;20052;-68
2021/10/15 12:36:37;;;;;;;11.63;6.78;;;12.70;78.50;;;;;;5026912;28;20517;-68
2021/10/15 12:39:25;;;;;;;10.38;6.78;;;12.80;78.90;;;;;;5023928;28;20033;-68
2021/10/15 12:41:54;;;;;;;9.18;5.30;;;12.80;78.60;;;;;;5026697;28;20057;-68
2021/10/15 12:44:25;;;;;;;;;;;12.80;76.10;;;;;;5031208;28;20838;-68
2021/10/15 12:47:00;;;;;;;9.73;5.13;;;12.70;76.10;;;;;;5030514;28;20358;-68
2021/10/15 12:49:27;;;;;;;9.20;5.15;;;12.80;75.40;;;;;;5029007;28;20125;-68
2021/10/15 12:51:52;;;;;;;10.95;5.85;;;13.00;76.50;;;;;;5030522;28;20063;-68
2021/10/15 12:54:40;;;;;;;11.88;6.75;;;13.00;75.10;;;;;;5029296;28;20033;-68
2021/10/15 12:57:09;;;;;;;11.10;6.60;;;12.90;75.50;;;;;;5025373;28;20047;-68
2021/10/15 12:59:35;;;;;;;12.48;7.10;;;12.90;76.60;;;;;;5029872;28;20033;-68
2021/10/15 13:02:08;;;;;;;12.30;6.50;;;13.10;75.50;;;;;;5027532;28;20397;-68
2021/10/15 13:04:34;;;;;;;11.10;6.63;;;13.00;76.00;;;;;;5028643;28;20049;-68
2021/10/15 13:07:01;;;;;;;9.90;6.25;;;13.00;76.60;;;;;;5028510;28;20080;-68
2021/10/15 13:09:31;;;;;;;11.30;6.30;;;13.10;75.90;;;;;;5030073;28;20029;-68
2021/10/15 13:11:58;;;;;;;10.13;6.40;;;13.10;76.20;;;;;;5029005;28;20042;-68